Gaffney, SC

3:37 PM EDT on May 29, 2015 (GMT -0400)
Corinth Community | | Change Station
CLOSE
Current Station
Personal Weather Station
Location: Gaffney, SC
Elevation: 669 ft
Nearby Weather Stations

Elev 669 ft 34.98 °N, 81.61 °W | Updated 3 seconds ago

Partly Cloudy
Partly Cloudy
83.9 °F
Feels Like 87 °F
N
0.0
Wind Variable Wind from East
Gusts 0.0 mph

Today
High -- | Low -- °F
--% Chance of Precip.
Yesterday
High -- | Low -- °F
Precip. -- in
6:14 AM 8:33 PM
Waxing Gibbous, 85% visible
Pressure 30.22 in
Visibility 10.0 miles
Clouds Scattered Clouds 3100 ft
Scattered Clouds 10000 ft
Heat Index 87 °F
Dew Point 68 °F
Humidity 59%
Rainfall 0.00 in
Snow Depth Not available.
UV 0.0 out of 12
Pollen 6.80 out of 12
Air Quality Not available.
Flu Activity Local Activity
METAR KEHO 291915Z AUTO 00000KT 10SM SCT031 SCT100 27/19 A3022 RMK AO2 T02690188

More Conditions Fewer Conditions

Pressure 30.22 in
Visibility 10.0 miles
Clouds Scattered Clouds 3100 ft
Scattered Clouds 10000 ft
Heat Index 87 °F
Dew Point 68 °F
Humidity 59%
Rainfall 0.00 in
Snow Depth Not available.
UV 0.0 out of 12
Pollen 6.80 out of 12
Air Quality Not available.
Flu Activity Local Activity
METAR KEHO 291915Z AUTO 00000KT 10SM SCT031 SCT100 27/19 A3022 RMK AO2 T02690188

More Conditions Fewer Conditions

10-Day Weather Forecast

Almanac

Astronomy

May. 29, 2015 Rise Set
Actual Time
Civil Twilight
Nautical Twilight
Astronomical Twilight
Moon
Length of Visible Light
Length of Day
Tomorrow will be .
, % of the Moon is Illuminated

Today's Extremes

State Highs State Lows

Community

WunderPhotos

Upload Photos

1,825,331 photos uploaded!

WunderBlogs® & News

Nearby

Air Quality

  Air Quality AQ Index Pollutant
Not available.

Snow Depth

Station Depth Elevation

Earthquake Activity

City Distance Mag. Time & Date
Minimum magnitude displayed is 2.5.

Coastal Water Temperatures

Place Temperature

Stations

Nearby Weather Stations

Station Location Temp. Windchill Dew Point Humidity Wind Precip. Elev Updated Type